»·PEaware :: ASA178 KSEA-KPDX

ASA178 :: KSEA-KPDX

FLIGHT INFORMATION

Flight Status: Arrived
Operator:
Alaska Airlines
More flights by this operator :: More flights under this callsign
Pilot: Jamyson D. (13674)
Aircraft: BOEING 737-800
(B738)
More flights by this aircraft type
Origin: KSEA Seattle-Tacoma Intl
United States
Destination: KPDX Portland Intl
United States
More flights between these airports :: More routes between these airports
Route: +SEA7 BUWZO KRATR2
File this flight plan on PilotEdge
Remarks:
Altitude:
(Current/Filed)
19,000ft
Speed:
(Current/Filed)
346kts
Departed: 11-Oct-18 04:23 PM
Arrived: 11-Oct-18 04:49 PM
Distance/Time
Traveled:
112nm/0:25
Distance/Time
To Go:
Arrived

Flight Plot

Page will automatically refresh every two minutes.

Flight plan parsing failed; only flown route is shown


Map Options




Map Legend


Flown Route
Filed Route
Departure Airport
Arrival Airport
Navaid (VOR, NDB)
Fix

Horizontal Profiles

Position Reports

Time Latitude Longitude Heading Altitude Ground
Speed
11-Oct-18 15:54 47.448298 -122.300756 245 434ft 0kts
11-Oct-18 15:55 47.448298 -122.300756 245 434ft 0kts
11-Oct-18 15:56 47.448298 -122.300756 245 434ft 0kts
11-Oct-18 15:57 47.448298 -122.300756 245 434ft 0kts
11-Oct-18 15:58 47.448298 -122.300756 245 434ft 0kts
11-Oct-18 15:59 47.448298 -122.300756 245 434ft 0kts
11-Oct-18 16:00 47.448298 -122.300756 245 434ft 0kts
11-Oct-18 16:01 47.448298 -122.300756 245 434ft 0kts
11-Oct-18 16:02 47.448298 -122.300756 245 434ft 0kts
11-Oct-18 16:03 47.448298 -122.300756 245 434ft 0kts
11-Oct-18 16:04 47.448298 -122.300756 245 434ft 0kts
11-Oct-18 16:05 47.448298 -122.300756 245 434ft 0kts
11-Oct-18 16:06 47.448298 -122.300756 245 434ft 0kts
11-Oct-18 16:07 47.448298 -122.300756 245 434ft 0kts
11-Oct-18 16:08 47.448298 -122.300756 245 434ft 0kts
11-Oct-18 16:09 47.448326 -122.300651 268 434ft 1kts
11-Oct-18 16:10 47.447993 -122.300020 313 434ft 2kts
11-Oct-18 16:11 47.447591 -122.299389 313 434ft 2kts
11-Oct-18 16:12 47.447493 -122.299234 313 434ft 0kts
11-Oct-18 16:13 47.447493 -122.299234 313 434ft 0kts
11-Oct-18 16:14 47.447661 -122.299475 319 434ft 6kts
11-Oct-18 16:15 47.450281 -122.303333 256 434ft 15kts
11-Oct-18 16:16 47.451092 -122.306263 358 434ft 9kts
11-Oct-18 16:17 47.454879 -122.306224 1 434ft 19kts
11-Oct-18 16:18 47.460818 -122.306173 0 434ft 27kts
11-Oct-18 16:19 47.463685 -122.306964 260 434ft 3kts
11-Oct-18 16:20 47.463640 -122.309093 271 434ft 3kts
11-Oct-18 16:21 47.463637 -122.310109 270 434ft 0kts
11-Oct-18 16:22 47.463639 -122.310861 255 434ft 1kts
11-Oct-18 16:23 47.463349 -122.311001 181 434ft 0kts
11-Oct-18 16:24 47.463349 -122.311001 181 434ft 0kts
11-Oct-18 16:25 47.458992 -122.311068 181 434ft 86kts
11-Oct-18 16:26 47.419125 -122.309829 177 1882ft 161kts
11-Oct-18 16:27 47.371249 -122.306114 176 3763ft 186kts
11-Oct-18 16:28 47.314990 -122.304570 181 5019ft 243kts
11-Oct-18 16:29 47.242687 -122.305596 181 7028ft 286kts
11-Oct-18 16:30 47.161815 -122.306703 181 9858ft 302kts
11-Oct-18 16:31 47.059787 -122.308114 181 12394ft 340kts
11-Oct-18 16:32 46.980231 -122.309227 181 14140ft 362kts
11-Oct-18 16:33 46.880905 -122.309788 180 16470ft 377kts
11-Oct-18 16:34 46.778209 -122.309705 180 17460ft 418kts
11-Oct-18 16:35 46.663421 -122.309651 180 19158ft 435kts
11-Oct-18 16:36 46.539908 -122.309610 180 18682ft 456kts
11-Oct-18 16:37 46.426834 -122.309572 180 16653ft 441kts
11-Oct-18 16:38 46.309633 -122.309541 180 14199ft 422kts
11-Oct-18 16:39 46.198998 -122.340957 201 11734ft 403kts
11-Oct-18 16:40 46.101603 -122.395959 202 10073ft 340kts
11-Oct-18 16:41 46.019792 -122.440461 201 8802ft 297kts
11-Oct-18 16:42 45.945271 -122.480311 197 7635ft 279kts
11-Oct-18 16:43 45.872751 -122.470885 166 6567ft 272kts
11-Oct-18 16:44 45.809673 -122.450020 167 5952ft 241kts
11-Oct-18 16:45 45.745409 -122.429557 167 4929ft 236kts
11-Oct-18 16:46 45.682180 -122.409518 167 3958ft 230kts
11-Oct-18 16:47 45.619386 -122.388944 173 2812ft 232kts
11-Oct-18 16:48 45.567671 -122.424922 224 2330ft 212kts
11-Oct-18 16:49 45.558315 -122.496260 285 910ft 179kts
11-Oct-18 16:50 45.578465 -122.553613 299 235ft 151kts
11-Oct-18 16:51 45.592973 -122.590885 299 37ft 28kts
11-Oct-18 16:52 45.591390 -122.599541 269 37ft 20kts
11-Oct-18 16:53 45.588127 -122.598032 95 37ft 9kts
11-Oct-18 16:54 45.588786 -122.597433 27 37ft 0kts
11-Oct-18 16:55 45.588786 -122.597433 27 37ft 0kts
11-Oct-18 16:56 45.588786 -122.597433 27 37ft 0kts
11-Oct-18 16:57 45.588786 -122.597433 27 37ft 0kts
11-Oct-18 16:58 45.588786 -122.597433 27 37ft 0kts
11-Oct-18 16:59 45.588786 -122.597433 27 37ft 0kts
11-Oct-18 17:00 45.588786 -122.597433 27 37ft 0kts
11-Oct-18 17:01 45.588786 -122.597433 27 37ft 0kts
11-Oct-18 17:02 45.588786 -122.597433 27 37ft 0kts
11-Oct-18 17:03 45.588786 -122.597433 27 37ft 0kts
11-Oct-18 17:04 45.588786 -122.597433 27 37ft 0kts
11-Oct-18 17:05 45.588786 -122.597433 27 37ft 0kts

Navigation Log

Ident Type
Flight plan parsing failed, navigation log unavailable